F/V Vent Du Large — FVHN — position and weather

sailwx.info

Track history (hours):
 
Tides and Currents Weather Stations Pressure Air Temp Water Temp Dewpoint Dewpoint Depression Visibility Wind Speed Wind Dir Waves Ship Positions

F/V Vent Du Large

Last reported at 2017-Sep-21 04:47 UTC. Time now 2017-Sep-21 05:28 UTC.
Position N 45°55' W 001°20'.

Length 14 m.

Type: Fishing. MMSI: 227582000.

Date/timePositionNaut miles runAvg speedWind from/ knotsBaromVisibWave heightAir tempDewpointWater temp
2017-Sep-21 04:47N 45°55' W 001°20'0 0.0
2017-Sep-21 04:26N 45°55' W 001°20'0 0.0
2017-Sep-21 03:47N 45°55' W 001°20'0 0.0
2017-Sep-21 03:29N 45°55' W 001°20'0 0.1
2017-Sep-21 02:41N 45°55' W 001°20'0 0.2
2017-Sep-21 02:23N 45°55' W 001°20'0 0.0
2017-Sep-21 01:57N 45°55' W 001°20'0 0.0
2017-Sep-21 01:04N 45°55' W 001°20'0 3.3
2017-Sep-21 01:00N 45°55' W 001°20'1 1.6
2017-Sep-21 00:21N 45°54' W 001°21'2 6.0
2017-Sep-20 23:59N 45°55' W 001°24'4 8.0
2017-Sep-20 23:30N 45°58' W 001°27'4 7.8
2017-Sep-20 23:00N 46°01' W 001°31'12 3.8
2017-Sep-20 19:54N 46°10' W 001°41'1 3.0
2017-Sep-20 19:29N 46°10' W 001°39'3 3.9
2017-Sep-20 18:45N 46°08' W 001°36'1 3.5
2017-Sep-20 18:27N 46°07' W 001°36'3 3.5
2017-Sep-20 17:32N 46°09' W 001°39'1 2.4
2017-Sep-20 17:18N 46°09' W 001°38'4 3.3
2017-Sep-20 15:57N 46°05' W 001°36'2 3.4
2017-Sep-20 15:29N 46°04' W 001°34'3 2.8
2017-Sep-20 14:31N 46°02' W 001°33'1 2.7
2017-Sep-20 13:59N 46°01' W 001°31'2 0.6
2017-Sep-20 11:25N 46°01' W 001°33'1 3.2
2017-Sep-20 11:01N 46°01' W 001°31'2 3.3
2017-Sep-20 10:31N 46°01' W 001°29'2 0.6
2017-Sep-20 06:39N 46°01' W 001°32'1 0.2
2017-Sep-20 00:42N 46°01' W 001°33'1 3.2
2017-Sep-20 00:28N 46°01' W 001°32'15 0.7
2017-Sep-19 03:14N 46°11' W 001°47'2 3.7
2017-Sep-19 02:49N 46°13' W 001°47'1 3.7
2017-Sep-19 02:30N 46°14' W 001°47'1 1.6
2017-Sep-19 02:00N 46°15' W 001°48'2 3.8
2017-Sep-19 01:30N 46°13' W 001°46'4 0.8
2017-Sep-18 20:36N 46°12' W 001°41'2 3.4
2017-Sep-18 19:54N 46°14' W 001°43'2 3.8
2017-Sep-18 19:21N 46°16' W 001°44'1 4.1
2017-Sep-18 19:00N 46°17' W 001°44'2 4.1
2017-Sep-18 18:30N 46°19' W 001°45'2 3.7
2017-Sep-18 18:00N 46°21' W 001°44'2 3.1
2017-Sep-18 17:30N 46°22' W 001°46'2 3.5
2017-Sep-18 17:00N 46°22' W 001°48'2 3.3
2017-Sep-18 16:30N 46°20' W 001°49'2 3.6
2017-Sep-18 15:59N 46°18' W 001°48'5 1.7
2017-Sep-18 12:54N 46°13' W 001°46'2 3.7
2017-Sep-18 12:29N 46°15' W 001°47'4 0.7
2017-Sep-18 07:15N 46°12' W 001°43'15 1.6
2017-Sep-17 21:51N 46°02' W 001°28'12 2.8
2017-Sep-17 17:40N 46°10' W 001°41'1 3.6
2017-Sep-17 17:29N 46°11' W 001°41'2 1.8
2017-Sep-17 16:32N 46°09' W 001°40'0 3.7
2017-Sep-17 16:30N 46°09' W 001°40'1 0.1
2017-Sep-17 09:03N 46°10' W 001°41'1 0.5
2017-Sep-17 07:50N 46°10' W 001°41'1 0.2
2017-Sep-17 00:26N 46°11' W 001°43'1 3.1
2017-Sep-17 00:00N 46°11' W 001°41'0 0.0
2017-Sep-16 17:18N 46°11' W 001°41'0 0.0
2017-Sep-16 14:03N 46°11' W 001°41'0 3.6
2017-Sep-16 14:01N 46°11' W 001°41'1 0.2
2017-Sep-16 07:59N 46°11' W 001°43'4 3.4
2017-Sep-16 06:53N 46°15' W 001°46'2 5.1
2017-Sep-16 06:30N 46°16' W 001°48'1 2.4
2017-Sep-16 06:00N 46°17' W 001°48'2 3.4
2017-Sep-16 05:30N 46°19' W 001°49'1 2.6
2017-Sep-16 05:00N 46°18' W 001°47'2 3.6
2017-Sep-16 04:28N 46°16' W 001°47'2 3.6
2017-Sep-16 03:54N 46°14' W 001°46'41 2.0
2017-Sep-15 07:37N 45°37' W 001°20'1 4.4
2017-Sep-15 07:29N 45°37' W 001°19'2 3.0
2017-Sep-15 06:58N 45°36' W 001°18'3 3.9
2017-Sep-15 06:16N 45°33' W 001°15'1 4.3
2017-Sep-15 06:00N 45°32' W 001°15'2 4.5
2017-Sep-15 05:31N 45°30' W 001°15'2 2.5
2017-Sep-15 04:42N 45°29' W 001°17'1 3.5
2017-Sep-15 04:19N 45°27' W 001°17'1 2.4
2017-Sep-15 03:58N 45°27' W 001°17'4 3.4
2017-Sep-15 02:51N 45°30' W 001°17'1 4.1
2017-Sep-15 02:30N 45°32' W 001°16'1 2.2
2017-Sep-15 01:52N 45°33' W 001°15'1 3.3
2017-Sep-15 01:30N 45°32' W 001°14'2 0.6
2017-Sep-14 22:32N 45°32' W 001°17'0 2.3
2017-Sep-14 22:24N 45°32' W 001°17'2 0.8
2017-Sep-14 20:25N 45°30' W 001°17'2 3.3
2017-Sep-14 19:49N 45°32' W 001°17'1 2.6
2017-Sep-14 19:21N 45°33' W 001°16'1 3.8
2017-Sep-14 19:00N 45°32' W 001°15'2 3.6
2017-Sep-14 18:30N 45°30' W 001°16'2 0.3
2017-Sep-14 13:23N 45°32' W 001°18'1 0.2
2017-Sep-14 05:51N 45°32' W 001°17'1 1.8
2017-Sep-14 05:15N 45°31' W 001°17'4 3.0
2017-Sep-14 04:00N 45°35' W 001°20'3 3.4
2017-Sep-14 03:07N 45°32' W 001°17'0 3.5
2017-Sep-14 03:00N 45°32' W 001°17'4 0.3
2017-Sep-13 13:52N 45°35' W 001°21'4 2.7
2017-Sep-13 12:20N 45°31' W 001°18'1 2.4
2017-Sep-13 11:52N 45°31' W 001°17'1 3.3
2017-Sep-13 11:28N 45°31' W 001°15'2 3.4
2017-Sep-13 11:00N 45°32' W 001°17'2 0.9
2017-Sep-13 09:17N 45°33' W 001°19'1 3.3
2017-Sep-13 08:59N 45°32' W 001°18'3 2.6
2017-Sep-13 07:58N 45°35' W 001°18'2 1.5
2017-Sep-13 06:36N 45°33' W 001°18'1 3.4
2017-Sep-13 06:21N 45°32' W 001°17'1 3.0
2017-Sep-13 05:59N 45°32' W 001°16'2 0.7
2017-Sep-13 03:45N 45°32' W 001°18'1 3.1
2017-Sep-13 03:30N 45°32' W 001°17'3 1.7
2017-Sep-13 01:55N 45°35' W 001°18'2 3.7
2017-Sep-13 01:25N 45°33' W 001°16'2 3.7
2017-Sep-13 00:58N 45°32' W 001°15'1 0.7
2017-Sep-12 23:45N 45°31' W 001°16'1 4.0
2017-Sep-12 23:27N 45°32' W 001°15'2 3.5
2017-Sep-12 22:48N 45°34' W 001°16'1 3.1
2017-Sep-12 22:27N 45°35' W 001°17'2 2.7
2017-Sep-12 21:41N 45°33' W 001°16'1 3.3
2017-Sep-12 21:28N 45°33' W 001°15'1 3.3
2017-Sep-12 21:00N 45°31' W 001°15'4 2.8
2017-Sep-12 19:37N 45°28' W 001°17'2 0.3
2017-Sep-12 12:07N 45°30' W 001°16'1 4.1
2017-Sep-12 11:55N 45°30' W 001°15'2 3.9
2017-Sep-12 11:26N 45°32' W 001°15'  
Track history (hours):
 
Tides and Currents Weather Stations Pressure Air Temp Water Temp Dewpoint Dewpoint Depression Visibility Wind Speed Wind Dir Waves Ship Positions

F/V Vent Du Large

Last reported at 2017-Sep-21 04:47 UTC. Time now 2017-Sep-21 05:28 UTC.
Position N 45°55' W 001°20'.

Length 14 m.

Type: Fishing. MMSI: 227582000.

Date/timePositionNaut miles runAvg speedWind from/ knotsBaromVisibWave heightAir tempDewpointWater temp
2017-Sep-21 04:47N 45°55' W 001°20'0 0.0
2017-Sep-21 04:26N 45°55' W 001°20'0 0.0
2017-Sep-21 03:47N 45°55' W 001°20'0 0.0
2017-Sep-21 03:29N 45°55' W 001°20'0 0.1
2017-Sep-21 02:41N 45°55' W 001°20'0 0.2
2017-Sep-21 02:23N 45°55' W 001°20'0 0.0
2017-Sep-21 01:57N 45°55' W 001°20'0 0.0
2017-Sep-21 01:04N 45°55' W 001°20'0 3.3
2017-Sep-21 01:00N 45°55' W 001°20'1 1.6
2017-Sep-21 00:21N 45°54' W 001°21'2 6.0
2017-Sep-20 23:59N 45°55' W 001°24'4 8.0
2017-Sep-20 23:30N 45°58' W 001°27'4 7.8
2017-Sep-20 23:00N 46°01' W 001°31'12 3.8
2017-Sep-20 19:54N 46°10' W 001°41'1 3.0
2017-Sep-20 19:29N 46°10' W 001°39'3 3.9
2017-Sep-20 18:45N 46°08' W 001°36'1 3.5
2017-Sep-20 18:27N 46°07' W 001°36'3 3.5
2017-Sep-20 17:32N 46°09' W 001°39'1 2.4
2017-Sep-20 17:18N 46°09' W 001°38'4 3.3
2017-Sep-20 15:57N 46°05' W 001°36'2 3.4
2017-Sep-20 15:29N 46°04' W 001°34'3 2.8
2017-Sep-20 14:31N 46°02' W 001°33'1 2.7
2017-Sep-20 13:59N 46°01' W 001°31'2 0.6
2017-Sep-20 11:25N 46°01' W 001°33'1 3.2
2017-Sep-20 11:01N 46°01' W 001°31'2 3.3
2017-Sep-20 10:31N 46°01' W 001°29'2 0.6
2017-Sep-20 06:39N 46°01' W 001°32'1 0.2
2017-Sep-20 00:42N 46°01' W 001°33'1 3.2
2017-Sep-20 00:28N 46°01' W 001°32'15 0.7
2017-Sep-19 03:14N 46°11' W 001°47'2 3.7
2017-Sep-19 02:49N 46°13' W 001°47'1 3.7
2017-Sep-19 02:30N 46°14' W 001°47'1 1.6
2017-Sep-19 02:00N 46°15' W 001°48'2 3.8
2017-Sep-19 01:30N 46°13' W 001°46'4 0.8
2017-Sep-18 20:36N 46°12' W 001°41'2 3.4
2017-Sep-18 19:54N 46°14' W 001°43'2 3.8
2017-Sep-18 19:21N 46°16' W 001°44'1 4.1
2017-Sep-18 19:00N 46°17' W 001°44'2 4.1
2017-Sep-18 18:30N 46°19' W 001°45'2 3.7
2017-Sep-18 18:00N 46°21' W 001°44'2 3.1
2017-Sep-18 17:30N 46°22' W 001°46'2 3.5
2017-Sep-18 17:00N 46°22' W 001°48'2 3.3
2017-Sep-18 16:30N 46°20' W 001°49'2 3.6
2017-Sep-18 15:59N 46°18' W 001°48'5 1.7
2017-Sep-18 12:54N 46°13' W 001°46'2 3.7
2017-Sep-18 12:29N 46°15' W 001°47'4 0.7
2017-Sep-18 07:15N 46°12' W 001°43'15 1.6
2017-Sep-17 21:51N 46°02' W 001°28'12 2.8
2017-Sep-17 17:40N 46°10' W 001°41'1 3.6
2017-Sep-17 17:29N 46°11' W 001°41'2 1.8
2017-Sep-17 16:32N 46°09' W 001°40'0 3.7
2017-Sep-17 16:30N 46°09' W 001°40'1 0.1
2017-Sep-17 09:03N 46°10' W 001°41'1 0.5
2017-Sep-17 07:50N 46°10' W 001°41'1 0.2
2017-Sep-17 00:26N 46°11' W 001°43'1 3.1
2017-Sep-17 00:00N 46°11' W 001°41'0 0.0
2017-Sep-16 17:18N 46°11' W 001°41'0 0.0
2017-Sep-16 14:03N 46°11' W 001°41'0 3.6
2017-Sep-16 14:01N 46°11' W 001°41'1 0.2
2017-Sep-16 07:59N 46°11' W 001°43'4 3.4
2017-Sep-16 06:53N 46°15' W 001°46'2 5.1
2017-Sep-16 06:30N 46°16' W 001°48'1 2.4
2017-Sep-16 06:00N 46°17' W 001°48'2 3.4
2017-Sep-16 05:30N 46°19' W 001°49'1 2.6
2017-Sep-16 05:00N 46°18' W 001°47'2 3.6
2017-Sep-16 04:28N 46°16' W 001°47'2 3.6
2017-Sep-16 03:54N 46°14' W 001°46'41 2.0
2017-Sep-15 07:37N 45°37' W 001°20'1 4.4
2017-Sep-15 07:29N 45°37' W 001°19'2 3.0
2017-Sep-15 06:58N 45°36' W 001°18'3 3.9
2017-Sep-15 06:16N 45°33' W 001°15'1 4.3
2017-Sep-15 06:00N 45°32' W 001°15'2 4.5
2017-Sep-15 05:31N 45°30' W 001°15'2 2.5
2017-Sep-15 04:42N 45°29' W 001°17'1 3.5
2017-Sep-15 04:19N 45°27' W 001°17'1 2.4
2017-Sep-15 03:58N 45°27' W 001°17'4 3.4
2017-Sep-15 02:51N 45°30' W 001°17'1 4.1
2017-Sep-15 02:30N 45°32' W 001°16'1 2.2
2017-Sep-15 01:52N 45°33' W 001°15'1 3.3
2017-Sep-15 01:30N 45°32' W 001°14'2 0.6
2017-Sep-14 22:32N 45°32' W 001°17'0 2.3
2017-Sep-14 22:24N 45°32' W 001°17'2 0.8
2017-Sep-14 20:25N 45°30' W 001°17'2 3.3
2017-Sep-14 19:49N 45°32' W 001°17'1 2.6
2017-Sep-14 19:21N 45°33' W 001°16'1 3.8
2017-Sep-14 19:00N 45°32' W 001°15'2 3.6
2017-Sep-14 18:30N 45°30' W 001°16'2 0.3
2017-Sep-14 13:23N 45°32' W 001°18'1 0.2
2017-Sep-14 05:51N 45°32' W 001°17'1 1.8
2017-Sep-14 05:15N 45°31' W 001°17'4 3.0
2017-Sep-14 04:00N 45°35' W 001°20'3 3.4
2017-Sep-14 03:07N 45°32' W 001°17'0 3.5
2017-Sep-14 03:00N 45°32' W 001°17'4 0.3
2017-Sep-13 13:52N 45°35' W 001°21'4 2.7
2017-Sep-13 12:20N 45°31' W 001°18'1 2.4
2017-Sep-13 11:52N 45°31' W 001°17'1 3.3
2017-Sep-13 11:28N 45°31' W 001°15'2 3.4
2017-Sep-13 11:00N 45°32' W 001°17'2 0.9
2017-Sep-13 09:17N 45°33' W 001°19'1 3.3
2017-Sep-13 08:59N 45°32' W 001°18'3 2.6
2017-Sep-13 07:58N 45°35' W 001°18'2 1.5
2017-Sep-13 06:36N 45°33' W 001°18'1 3.4
2017-Sep-13 06:21N 45°32' W 001°17'1 3.0
2017-Sep-13 05:59N 45°32' W 001°16'2 0.7
2017-Sep-13 03:45N 45°32' W 001°18'1 3.1
2017-Sep-13 03:30N 45°32' W 001°17'3 1.7
2017-Sep-13 01:55N 45°35' W 001°18'2 3.7
2017-Sep-13 01:25N 45°33' W 001°16'2 3.7
2017-Sep-13 00:58N 45°32' W 001°15'1 0.7
2017-Sep-12 23:45N 45°31' W 001°16'1 4.0
2017-Sep-12 23:27N 45°32' W 001°15'2 3.5
2017-Sep-12 22:48N 45°34' W 001°16'1 3.1
2017-Sep-12 22:27N 45°35' W 001°17'2 2.7
2017-Sep-12 21:41N 45°33' W 001°16'1 3.3
2017-Sep-12 21:28N 45°33' W 001°15'1 3.3
2017-Sep-12 21:00N 45°31' W 001°15'4 2.8
2017-Sep-12 19:37N 45°28' W 001°17'2 0.3
2017-Sep-12 12:07N 45°30' W 001°16'1 4.1
2017-Sep-12 11:55N 45°30' W 001°15'2 3.9
2017-Sep-12 11:26N 45°32' W 001°15'  

Dump ship's entire track history